createdAt,value
2018-10-05T00:01:03.722Z,"    0"
2018-10-05T00:05:59.922Z,"    0"
2018-10-05T00:10:56.587Z,"    0"
2018-10-05T00:15:53.098Z,"    0"
2018-10-05T00:20:48.988Z,"    0"
2018-10-05T00:25:44.854Z,"    0"
2018-10-05T00:30:40.739Z,"    0"
2018-10-05T00:35:37.432Z,"    0"
2018-10-05T00:40:32.783Z,"    0"
2018-10-05T00:45:28.924Z,"    0"
2018-10-05T00:50:24.696Z,"    0"
2018-10-05T00:55:20.630Z,"    0"
2018-10-05T01:00:16.640Z,"    0"
2018-10-05T01:05:12.954Z,"    0"
2018-10-05T01:10:08.748Z,"    0"
2018-10-05T01:15:04.624Z,"    0"
2018-10-05T01:20:00.333Z,"    0"
2018-10-05T01:24:56.267Z,"    0"
2018-10-05T01:29:52.995Z,"    0"
2018-10-05T01:34:48.497Z,"    0"
2018-10-05T01:39:43.929Z,"    0"
2018-10-05T01:44:39.486Z,"    0"
2018-10-05T01:49:35.826Z,"    0"
2018-10-05T01:54:31.423Z,"    0"
2018-10-05T01:59:27.595Z,"    0"
2018-10-05T02:04:24.263Z,"    0"
2018-10-05T02:09:19.580Z,"    0"
2018-10-05T02:14:15.055Z,"    0"
2018-10-05T02:19:10.857Z,"    0"
2018-10-05T02:24:06.556Z,"    0"
2018-10-05T02:29:01.970Z,"    0"
2018-10-05T02:33:58.756Z,"    0"
2018-10-05T02:38:55.014Z,"    0"
2018-10-05T02:43:51.064Z,"    0"
2018-10-05T02:48:48.306Z,"    0"
2018-10-05T02:53:44.326Z,"    0"
2018-10-05T02:58:40.873Z,"    0"
2018-10-05T03:03:36.308Z,"    0"
2018-10-05T03:08:32.936Z,"    0"
2018-10-05T03:13:28.328Z,"    0"
2018-10-05T03:18:24.152Z,"    0"
2018-10-05T03:23:20.091Z,"    0"
2018-10-05T03:28:16.128Z,"    0"
2018-10-05T03:33:11.861Z,"    0"
2018-10-05T03:38:07.547Z,"    0"
2018-10-05T03:43:03.392Z,"    0"
2018-10-05T03:47:58.934Z,"    0"
2018-10-05T03:52:55.546Z,"    0"
2018-10-05T03:57:51.017Z,"    0"
2018-10-05T04:02:46.659Z,"    0"
2018-10-05T04:07:43.531Z,"    0"
2018-10-05T04:12:39.189Z,"    0"
2018-10-05T04:17:36.000Z,"    0"
2018-10-05T04:22:31.479Z,"    0"
2018-10-05T04:27:28.213Z,"    0"
2018-10-05T04:32:24.734Z,"    0"
2018-10-05T04:37:20.070Z,"    0"
2018-10-05T04:42:17.060Z,"    0"
2018-10-05T04:47:13.508Z,"    0"
2018-10-05T04:52:09.108Z,"    0"
2018-10-05T04:57:05.084Z,"    0"
2018-10-05T05:02:00.424Z,"    0"
2018-10-05T05:06:56.271Z,"    0"
2018-10-05T05:11:52.186Z,"    0"
2018-10-05T05:16:47.895Z,"    0"
2018-10-05T05:21:43.579Z,"    0"
2018-10-05T05:26:39.400Z,"    0"
2018-10-05T05:31:35.323Z,"    0"
2018-10-05T05:36:30.886Z,"    5"
2018-10-05T05:41:27.892Z,"    5"
2018-10-05T05:46:23.456Z,"   10"
2018-10-05T05:51:19.903Z,"   15"
2018-10-05T05:56:16.533Z,"   15"
2018-10-05T06:01:12.101Z,"   20"
2018-10-05T06:06:08.098Z,"   25"
2018-10-05T06:11:03.641Z,"   30"
2018-10-05T06:15:59.889Z,"   35"
2018-10-05T06:20:55.747Z,"   35"
2018-10-05T06:25:51.625Z,"   40"
2018-10-05T06:30:47.699Z,"   45"
2018-10-05T06:35:43.340Z,"   50"
2018-10-05T06:40:39.334Z,"   50"
2018-10-05T06:45:35.055Z,"   55"
2018-10-05T06:50:30.533Z,"   60"
2018-10-05T06:55:26.418Z,"   65"
2018-10-05T07:00:22.271Z,"   70"
2018-10-05T07:05:17.922Z,"   65"
2018-10-05T07:10:14.615Z,"   70"
2018-10-05T07:15:10.535Z,"   75"
2018-10-05T07:20:06.418Z,"   75"
2018-10-05T07:25:02.735Z,"   80"
2018-10-05T07:29:59.359Z,"   80"
2018-10-05T07:34:54.877Z,"  110"
2018-10-05T07:39:51.801Z,"   85"
2018-10-05T07:44:47.294Z,"   80"
2018-10-05T07:49:43.321Z,"   80"
2018-10-05T07:54:39.368Z,"   80"
2018-10-05T07:59:35.215Z,"   85"
2018-10-05T08:04:31.032Z,"   85"
2018-10-05T08:09:27.104Z,"   85"
2018-10-05T08:14:23.347Z,"   90"
2018-10-05T08:19:19.565Z,"   85"
2018-10-05T08:24:15.675Z,"   85"
2018-10-05T08:29:11.655Z,"   85"
2018-10-05T08:34:09.019Z,"   90"
2018-10-05T08:39:04.796Z,"   90"
2018-10-05T08:44:00.745Z,"   90"
2018-10-05T08:48:57.316Z,"   90"
2018-10-05T08:53:53.121Z,"   90"
2018-10-05T08:58:50.081Z,"   95"
2018-10-05T09:03:45.676Z,"   90"
2018-10-05T09:08:42.648Z,"  115"
2018-10-05T09:13:39.081Z,"  380"
2018-10-05T09:18:35.056Z,"  120"
2018-10-05T09:23:31.139Z,"  125"
2018-10-05T09:28:27.462Z,"  150"
2018-10-05T09:33:23.565Z,"  100"
2018-10-05T09:38:20.565Z,"  130"
2018-10-05T09:43:17.789Z,"  100"
2018-10-05T09:48:14.748Z,"  125"
2018-10-05T09:53:10.655Z,"  130"
2018-10-05T09:58:06.981Z,"  100"
2018-10-05T10:03:03.127Z,"  110"
2018-10-05T10:07:59.906Z,"  110"
2018-10-05T10:12:56.108Z,"  115"
2018-10-05T10:17:52.136Z,"  135"
2018-10-05T10:22:48.297Z,"  105"
2018-10-05T10:27:44.307Z,"  310"
2018-10-05T10:32:40.236Z,"  120"
2018-10-05T10:37:37.531Z,"  140"
2018-10-05T10:42:33.321Z,"  115"
2018-10-05T10:47:29.587Z,"  155"
2018-10-05T10:52:26.897Z,"  310"
2018-10-05T10:57:24.734Z,"  865"
2018-10-05T11:02:21.570Z,"  825"
2018-10-05T11:07:18.994Z,"  900"
2018-10-05T11:12:16.207Z,"  900"
2018-10-05T11:17:12.909Z,"  885"
2018-10-05T11:22:10.609Z,"  890"
2018-10-05T11:27:06.763Z,"  885"
2018-10-05T11:32:04.229Z,"  830"
2018-10-05T11:36:59.768Z,"  530"
2018-10-05T11:41:56.208Z,"  125"
2018-10-05T11:46:52.218Z,"  510"
2018-10-05T11:51:47.861Z,"  570"
2018-10-05T11:56:44.613Z,"  175"
2018-10-05T12:01:39.979Z,"  115"
2018-10-05T12:06:36.561Z,"  125"
2018-10-05T12:11:32.868Z,"  120"
2018-10-05T12:16:28.329Z,"  115"
2018-10-05T12:21:24.330Z,"  545"
2018-10-05T12:26:20.390Z,"  125"
2018-10-05T12:31:17.425Z,"  100"
2018-10-05T12:36:12.858Z,"  110"
2018-10-05T12:41:09.684Z,"   95"
2018-10-05T12:46:05.241Z,"   95"
2018-10-05T12:51:01.185Z,"   95"
2018-10-05T12:55:57.081Z,"   95"
2018-10-05T13:00:54.045Z,"  105"
2018-10-05T13:05:49.673Z,"  265"
2018-10-05T13:10:47.041Z,"  240"
2018-10-05T13:15:43.746Z,"   90"
2018-10-05T13:20:40.336Z,"   90"
2018-10-05T13:25:35.923Z,"  150"
2018-10-05T13:30:32.158Z,"   90"
2018-10-05T13:35:28.135Z,"  130"
2018-10-05T13:40:25.091Z,"  105"
2018-10-05T13:45:20.696Z,"   85"
2018-10-05T13:50:17.151Z,"  145"
2018-10-05T13:55:13.256Z,"   85"
2018-10-05T14:00:08.953Z,"   80"
2018-10-05T14:05:05.016Z,"   80"
2018-10-05T14:10:00.759Z,"   80"
2018-10-05T14:14:57.546Z,"   80"
2018-10-05T14:19:53.113Z,"   75"
2018-10-05T14:24:49.403Z,"   75"
2018-10-05T14:29:46.150Z,"   75"
2018-10-05T14:34:42.881Z,"   75"
2018-10-05T14:39:38.526Z,"   70"
2018-10-05T14:44:34.347Z,"   70"
2018-10-05T14:49:30.292Z,"   70"
2018-10-05T14:54:27.393Z,"   70"
2018-10-05T14:59:24.184Z,"   65"
2018-10-05T15:04:20.835Z,"   65"
2018-10-05T15:09:16.905Z,"   65"
2018-10-05T15:14:13.763Z,"   65"
2018-10-05T15:19:08.967Z,"   60"
2018-10-05T15:24:05.176Z,"   60"
2018-10-05T15:29:01.066Z,"   60"
2018-10-05T15:33:57.147Z,"   55"
2018-10-05T15:38:53.340Z,"   55"
2018-10-05T15:43:49.501Z,"   50"
2018-10-05T15:48:46.515Z,"   50"
2018-10-05T15:53:43.609Z,"   45"
2018-10-05T15:58:39.441Z,"   45"
2018-10-05T16:03:36.758Z,"   40"
2018-10-05T16:08:32.056Z,"   35"
2018-10-05T16:13:28.983Z,"   35"
2018-10-05T16:18:24.486Z,"   30"
2018-10-05T16:23:21.663Z,"   25"
2018-10-05T16:28:17.171Z,"   25"
2018-10-05T16:33:13.083Z,"   20"
2018-10-05T16:38:09.810Z,"   15"
2018-10-05T16:43:05.293Z,"   10"
2018-10-05T16:48:01.985Z,"   10"
2018-10-05T16:52:57.795Z,"    5"
2018-10-05T16:57:53.464Z,"    5"
2018-10-05T17:02:49.050Z,"    0"
2018-10-05T17:07:44.710Z,"    0"
2018-10-05T17:12:40.195Z,"    0"
2018-10-05T17:17:37.048Z,"    0"
2018-10-05T17:22:32.687Z,"    0"
2018-10-05T17:27:28.385Z,"    0"
2018-10-05T17:32:25.125Z,"    0"
2018-10-05T17:37:22.607Z,"    0"
2018-10-05T17:42:19.412Z,"    0"
2018-10-05T17:47:15.037Z,"    0"
2018-10-05T17:52:11.828Z,"    0"
2018-10-05T17:57:07.321Z,"    0"
2018-10-05T18:02:03.146Z,"    0"
2018-10-05T18:06:59.213Z,"    0"
2018-10-05T18:11:55.024Z,"    0"
2018-10-05T18:16:52.295Z,"    0"
2018-10-05T18:21:49.367Z,"    0"
2018-10-05T18:26:44.915Z,"    0"
2018-10-05T18:31:42.437Z,"    0"
2018-10-05T18:36:39.865Z,"    0"
2018-10-05T18:41:35.361Z,"    0"
2018-10-05T18:46:31.316Z,"    0"
2018-10-05T18:51:27.908Z,"    0"
2018-10-05T18:56:24.600Z,"    0"
2018-10-05T19:01:21.469Z,"    0"
2018-10-05T19:06:17.216Z,"    0"
2018-10-05T19:11:14.514Z,"    0"
2018-10-05T19:16:10.113Z,"    0"
2018-10-05T19:21:06.000Z,"    0"
2018-10-05T19:26:02.883Z,"    0"
2018-10-05T19:30:59.304Z,"    0"
2018-10-05T19:35:54.914Z,"    0"
2018-10-05T19:40:50.929Z,"    0"
2018-10-05T19:45:47.584Z,"    0"
2018-10-05T19:50:43.305Z,"    0"
2018-10-05T19:55:42.668Z,"    0"
2018-10-05T20:00:37.898Z,"    0"
2018-10-05T20:05:34.970Z,"    0"
2018-10-05T20:10:32.207Z,"    0"
2018-10-05T20:15:28.801Z,"    0"
2018-10-05T20:20:24.329Z,"    0"
2018-10-05T20:25:21.023Z,"    0"
2018-10-05T20:30:17.151Z,"    0"
2018-10-05T20:35:13.113Z,"    0"
2018-10-05T20:40:08.834Z,"    0"
2018-10-05T20:45:04.517Z,"    0"
2018-10-05T20:50:00.329Z,"    0"
2018-10-05T20:54:57.070Z,"    0"
2018-10-05T20:59:52.865Z,"    0"
2018-10-05T21:04:48.570Z,"    0"
2018-10-05T21:09:45.383Z,"    0"
2018-10-05T21:14:41.681Z,"    0"
2018-10-05T21:19:37.451Z,"    0"
2018-10-05T21:24:33.365Z,"    0"
2018-10-05T21:29:29.315Z,"    0"
2018-10-05T21:34:25.224Z,"    0"
2018-10-05T21:39:22.223Z,"    0"
2018-10-05T21:44:18.216Z,"    0"
2018-10-05T21:49:15.421Z,"    0"
2018-10-05T21:54:12.355Z,"    0"
2018-10-05T21:59:08.777Z,"    0"
2018-10-05T22:04:05.252Z,"    0"
2018-10-05T22:09:02.008Z,"    0"
2018-10-05T22:13:59.100Z,"    0"
2018-10-05T22:18:54.439Z,"    0"
2018-10-05T22:23:51.721Z,"    0"
2018-10-05T22:28:48.207Z,"    0"
2018-10-05T22:33:44.556Z,"    0"
2018-10-05T22:38:40.466Z,"    0"
2018-10-05T22:43:37.193Z,"    0"
2018-10-05T22:48:33.610Z,"    0"
2018-10-05T22:53:29.225Z,"    0"
2018-10-05T22:58:25.668Z,"    0"
2018-10-05T23:03:21.652Z,"    0"
2018-10-05T23:08:18.375Z,"    0"
2018-10-05T23:13:13.949Z,"    0"
2018-10-05T23:18:10.593Z,"    0"
2018-10-05T23:23:07.911Z,"    0"
2018-10-05T23:28:04.432Z,"    0"
2018-10-05T23:32:59.740Z,"    0"
2018-10-05T23:37:55.536Z,"    0"
2018-10-05T23:42:51.201Z,"    0"
2018-10-05T23:47:46.911Z,"    0"
2018-10-05T23:52:43.740Z,"    0"
2018-10-05T23:57:39.198Z,"    0"
